Aviation Digital Data Service (ADDS)

Output produced by METARs form (2221 UTC 21 September 2021)
found at http://aviationweather.gov/metar/data/
 
METAR text: LEGR 212200Z AUTO 00000KT CAVOK 15/14 Q1019
Conditions at: LEGR (GRANADA AIRPORT , ES) observed 2200 UTC 21 September 2021
Temperature: 15.0°C (59°F)
Dewpoint: 14.0°C (57°F) [RH = 94%]
Pressure (altimeter): 30.09 inches Hg (1019.0 mb)
Winds: calm
Visibility: 6 or more miles (10+ km)
Ceiling: ceiling and visibility are OK
Clouds: unknown
Weather: no significant weather observed at this time

METAR text: LEGR 212130Z 00000KT CAVOK 15/14 Q1019
Conditions at: LEGR (GRANADA AIRPORT , ES) observed 2130 UTC 21 September 2021
Temperature: 15.0°C (59°F)
Dewpoint: 14.0°C (57°F) [RH = 94%]
Pressure (altimeter): 30.09 inches Hg (1019.0 mb)
Winds: calm
Visibility: 6 or more miles (10+ km)
Ceiling: ceiling and visibility are OK
Clouds: unknown
Weather: no significant weather observed at this time

METAR text: LEGR 212100Z 00000KT CAVOK 16/14 Q1019
Conditions at: LEGR (GRANADA AIRPORT , ES) observed 2100 UTC 21 September 2021
Temperature: 16.0°C (61°F)
Dewpoint: 14.0°C (57°F) [RH = 88%]
Pressure (altimeter): 30.09 inches Hg (1019.0 mb)
Winds: calm
Visibility: 6 or more miles (10+ km)
Ceiling: ceiling and visibility are OK
Clouds: unknown
Weather: no significant weather observed at this time

METAR text: LEGR 212030Z 00000KT 9999 FEW050 16/14 Q1018
Conditions at: LEGR (GRANADA AIRPORT , ES) observed 2030 UTC 21 September 2021
Temperature: 16.0°C (61°F)
Dewpoint: 14.0°C (57°F) [RH = 88%]
Pressure (altimeter): 30.06 inches Hg (1018.0 mb)
Winds: calm
Visibility: 6 or more miles (10+ km)
Ceiling: at least 12,000 feet AGL
Clouds: few clouds at 5000 feet AGL
Weather: no significant weather observed at this time

Forecast for: LEGR (GRANADA AIRPORT , ES)
Text: TAF LEGR 211700Z 2118/2218 34005KT 9999 FEW040 TX26/2215Z TN12/2206Z
Forecast period: 1800 UTC 21 September 2021 to 1800 UTC 22 September 2021
Forecast type: FROM: standard forecast or significant change
Winds: from the NNW (340 degrees) at 6 MPH (5 knots; 2.6 m/s)
Visibility: 6 or more miles (10+ km)
Ceiling: at least 12,000 feet AGL
Clouds: few clouds at 4000 feet AGL
Weather: no significant weather forecast for this period
Text: PROB40
Forecast period: 1000 to 1700 UTC 22 September 2021
Forecast type: TEMPORARY: The following changes expected for less than half the time period
Visibility: 2.49 miles (4.01 km)
Ceiling: at least 12,000 feet AGL
Clouds: scattered clouds at 3500 feet AGL
Weather: SHRA  (rain showers)